Darbhanga Airport

Jump to: basic info | weather | runways | comments

Related pages: nearby airports | nearby navaids | notams | map

Basic information (top)

Codes: VE89
Location: lon 26.192801, lat 85.916901, elev 156 ft / 48 m msl
Status: small_airport

Weather (top)

Current conditions for Lok Nayak Jayaprakash Airport 58nm (107km) SW (rec'd 2015/04/27 15:50Z):

VEPT 271550Z 12006KT 4000 HZ NSC 30/20 Q1008 NOSIG

Airport forecast for Lok Nayak Jayaprakash Airport 58nm (107km) SW (rec'd 2015/04/21 00:36Z):

TAF VEPT 212100Z 2200/2306 11005KT 2000 HZ NSC 
      BECMG 2203/2204 3000 HZ 
      BECMG 2207/2209 04005KT 4500 HZ 
      BECMG 2218/2220 09005KT 3000 HZ 
      BECMG 2222/2224 2000 HZ 
      BECMG 2203/2205 3000 HZ

Runways (top)

10/28: 9,000 x 150 ft (2,743 x 46 m) — paved — not lighted

Latest comments (top)

Darbhanga Airport: Darbhainga Airport sa jalda jalda ... [read]

required: Please I have big request to bihar ... [read]

darbhanga airport: Sir ..plz start domestic flights in ... [read]

bihar ke neta gan se hammar binti aich: Darbhanga aur bihar ke neta gan aur ... [read]

re: Darbhanga Airport: Sir...i requested to bihar government ... [read]

See all 29 comments for Darbhanga Airport

More... (top)

See also NOTAMs and nearby airports and navaids, or visit the Darbhanga Airport page at the main OurAirports website..